ГП-3

Карта отелей и гостиниц, располагающихся рядом с аэропортом ГП-3 :

ГП-3 Ханты-Мансийский автономный округ - Югра 60° 59' 51.9612" N, 76° 21' 7.9812" E
ГП-3 Ханты-Мансийский автономный округ - Югра 60° 59' 51.9612" N, 76° 21' 7.9812" E
Код аэродрома ИКАО
HAB1
Код аэродрома RU
ХАБ1
Координаты
N60.99777° E076.35222°
Превышение над уровнем моря
34
Основная полоса
Курс магнитный
Длина основной ВПП
Ширина основной ВПП
Покрытие основной ВПП
Освещение ВПП
Тип: 
Вертодром
Класс аэродрома: 
Принадлежность: 
ГА
Статус: 
Действующий
Сайт: 
E-mail аэродрома: 
Страна: 
Россия
Регион: 
Ханты-Мансийский автономный округ - Югра
Город: 
Дополнительная информация: 


Найти трансфер

С помощью этой формы Вы можете найти трансфер из аэропорта ГП-3 в город, аэропорт или вокзал:

Погода в аэропортах:

Авиационная погода в Ботсфьорде

Регион: 
Погода METAR: 
ENBS 212250Z AUTO 17007KT 9999 -RA ///042/// 02/01 Q1013
Время наблюдения
2022-05-21T22:50:00Z
Температура C
2.0
Точка росы
1.0
Направление ветра
170
Скорость ветра (узлы)
7
Метео видимость
6.21
Облачность
Нижняя граница облачности (футы)
Явления погоды
-RA
Условия полета
-RA - слабый дождь;

Авиационная погода в Сыктывкаре

Регион: 
Погода METAR: 
UUYY 212300Z 02004MPS 8000 -SHSN SCT008 BKN018CB M00/M01 Q1004 R36/29//51 NOSIG RMK QFE744/0992
Время наблюдения
2022-05-21T23:00:00Z
Температура C
0.0
Точка росы
-1.0
Направление ветра
20
Скорость ветра (узлы)
8
Метео видимость
4.97
Облачность
SCT
BKN
Нижняя граница облачности (футы)
800
1800
Явления погоды
-SHSN
Условия полета
MVFR
Аэропорт подробнее: 
SCT – разбросанная отдельная облачность; BKN – значительная (рассеянная, разорванная) облачность;
-SHSN - слабый ливневой снег;

Авиационная погода в Волгограде

Регион: 
Погода METAR: 
URWW 212300Z 19004MPS 9000 -RA OVC005 11/11 Q1003 R24/290060 TEMPO 1000 TSRAGR BKN020CB RMK OBST OBSC
Время наблюдения
2022-05-21T23:00:00Z
Температура C
11.0
Точка росы
11.0
Направление ветра
190
Скорость ветра (узлы)
8
Метео видимость
5.59
Облачность
OVC
Нижняя граница облачности (футы)
500
Явления погоды
-RA
Условия полета
IFR
Аэропорт подробнее: 
OVC – сплошная облачность;
-RA - слабый дождь;

Авиационная погода в Екатеринбурге

Регион: 
Погода METAR: 
USSS 212300Z 30007MPS 9999 -SHRA OVC007CB 03/02 Q0991 R26R/290335 NOSIG RMK QFE723/0964
Время наблюдения
2022-05-21T23:00:00Z
Температура C
3.0
Точка росы
2.0
Направление ветра
300
Скорость ветра (узлы)
14
Метео видимость
6.21
Облачность
OVC
Нижняя граница облачности (футы)
700
Явления погоды
-SHRA
Условия полета
IFR
Аэропорт подробнее: 
OVC – сплошная облачность;
-SHRA - слабый ливневой дождь;